Time;durP1;ratioP1;P1;durP2;ratioP2;P2;SDS_P1;SDS_P2;PMS_P1;PMS_P2;Temp;Humidity;BMP_temperature;BMP_pressure;BME280_temperature;BME280_humidity;BME280_pressure;Samples;Min_cycle;Max_cycle;Signal;HPM_P1;HPM_P2
2022/05/17 00:00:26;;;;;;;5.60;3.10;;;;;;;13.89;40.24;100432.91;106161;1273;97868;-76
2022/05/17 00:03:06;;;;;;;4.20;2.90;;;;;;;13.83;40.33;100433.36;107581;1274;137610;-75
2022/05/17 00:05:39;;;;;;;6.20;2.50;;;;;;;13.78;40.45;100427.29;107658;1274;112691;-76
2022/05/17 00:08:11;;;;;;;4.20;2.50;;;;;;;13.73;40.49;100429.61;107677;1273;138198;-75
2022/05/17 00:10:44;;;;;;;4.90;2.80;;;;;;;13.67;40.64;100436.32;106827;1273;108839;-75
2022/05/17 00:13:17;;;;;;;7.00;2.70;;;;;;;13.62;40.56;100433.55;107765;1273;96095;-75
2022/05/17 00:15:51;;;;;;;4.80;2.90;;;;;;;13.57;40.65;100437.08;107251;1273;137769;-75
2022/05/17 00:18:25;;;;;;;5.40;2.60;;;;;;;13.52;40.68;100436.94;106536;1273;113708;-76
2022/05/17 00:20:57;;;;;;;5.40;2.40;;;;;;;13.49;40.78;100436.01;106092;1273;138073;-74
2022/05/17 00:23:30;;;;;;;4.50;2.50;;;;;;;13.44;40.67;100435.52;106249;1273;108929;-75
2022/05/17 00:26:02;;;;;;;4.90;2.30;;;;;;;13.38;40.89;100432.43;106076;1273;138092;-74
2022/05/17 00:28:35;;;;;;;5.20;2.50;;;;;;;13.33;40.89;100426.56;106206;1273;97717;-75
2022/05/17 00:31:08;;;;;;;9.30;2.70;;;;;;;13.27;40.93;100427.27;107832;1272;110966;-75
2022/05/17 00:33:40;;;;;;;4.00;2.70;;;;;;;13.20;41.00;100431.06;107689;1271;138649;-75
2022/05/17 00:36:12;;;;;;;5.40;2.80;;;;;;;13.16;41.25;100427.20;107806;1273;109064;-76
2022/05/17 00:38:44;;;;;;;4.50;2.70;;;;;;;13.09;41.22;100432.52;107673;1271;137917;-76
2022/05/17 00:41:16;;;;;;;4.20;2.70;;;;;;;13.03;41.51;100431.55;107824;1271;96076;-76
2022/05/17 00:46:44;;;;;;;5.10;3.00;;;;;;;12.88;41.78;100431.77;107091;1271;108807;-76
2022/05/17 00:49:24;;;;;;;5.80;2.90;;;;;;;12.84;41.96;100427.94;107747;1272;109072;-76
2022/05/17 00:52:01;;;;;;;6.50;3.00;;;;;;;12.79;41.99;100432.33;106587;1273;137771;-75
2022/05/17 00:54:34;;;;;;;4.60;2.50;;;;;;;12.74;42.07;100426.23;107830;1272;96057;-76
2022/05/17 00:57:14;;;;;;;7.60;2.70;;;;;;;12.67;42.17;100427.34;107651;1272;137948;-76
2022/05/17 00:59:48;;;;;;;4.20;2.30;;;;;;;12.63;42.07;100426.10;107196;1272;108840;-77
2022/05/17 01:02:20;;;;;;;6.00;2.60;;;;;;;12.54;42.14;100423.65;107634;1270;138162;-76
2022/05/17 01:04:52;;;;;;;4.60;2.30;;;;;;;12.48;42.23;100425.96;106434;1273;97845;-76
2022/05/17 01:07:32;;;;;;;2.90;2.20;;;;;;;12.40;42.42;100422.46;107210;1272;96269;-76
2022/05/17 01:10:04;;;;;;;3.70;2.10;;;;;;;12.35;42.44;100420.15;107696;1272;138281;-76
2022/05/17 01:12:38;;;;;;;5.00;2.30;;;;;;;12.32;42.47;100420.62;107797;1273;108737;-76
2022/05/17 01:15:12;;;;;;;5.30;2.00;;;;;;;12.29;42.51;100417.44;107586;1272;138391;-75
2022/05/17 01:17:44;;;;;;;7.60;2.40;;;;;;;12.28;42.55;100413.29;107701;1273;96138;-76
2022/05/17 01:20:16;;;;;;;5.50;2.40;;;;;;;12.27;42.57;100415.07;107690;1272;138385;-76
2022/05/17 01:22:48;;;;;;;7.10;2.00;;;;;;;12.25;42.59;100416.02;107120;1273;112622;-76
2022/05/17 01:25:21;;;;;;;3.80;2.00;;;;;;;12.22;42.61;100416.99;107189;1273;108931;-76
2022/05/17 01:28:00;;;;;;;4.40;2.10;;;;;;;12.19;42.71;100415.34;106941;1273;137966;-75
2022/05/17 01:30:33;;;;;;;4.60;2.50;;;;;;;12.15;42.74;100415.33;107296;1272;98233;-77
2022/05/17 01:33:05;;;;;;;8.20;2.40;;;;;;;12.12;42.86;100417.01;107259;1271;137682;-76
2022/05/17 01:35:37;;;;;;;6.10;2.50;;;;;;;12.10;43.02;100419.85;106262;1273;112545;-76
2022/05/17 01:38:10;;;;;;;7.90;2.40;;;;;;;12.07;43.08;100421.88;106845;1271;136782;-75
2022/05/17 01:40:43;;;;;;;4.30;2.30;;;;;;;12.03;43.20;100421.15;107769;1272;109237;-76
2022/05/17 01:43:15;;;;;;;10.00;2.20;;;;;;;12.02;43.37;100423.80;107745;1273;96169;-76
2022/05/17 01:45:47;;;;;;;7.00;2.40;;;;;;;11.98;43.40;100421.14;106483;1272;137988;-75
2022/05/17 01:48:20;;;;;;;4.40;2.20;;;;;;;11.95;43.59;100419.35;107791;1272;112727;-75
2022/05/17 01:50:52;;;;;;;6.30;2.40;;;;;;;11.94;43.65;100417.11;107729;1272;137950;-76
2022/05/17 01:53:24;;;;;;;7.50;2.80;;;;;;;11.93;43.76;100417.88;106989;1273;109294;-74
2022/05/17 01:55:56;;;;;;;5.90;2.50;;;;;;;11.92;43.86;100421.38;107678;1272;138579;-76
2022/05/17 01:58:28;;;;;;;5.70;2.20;;;;;;;11.91;43.89;100423.33;107757;1272;96248;-75
2022/05/17 02:01:00;;;;;;;6.20;2.20;;;;;;;11.88;43.95;100423.61;107767;1273;110752;-75
2022/05/17 02:03:32;;;;;;;7.00;1.90;;;;;;;11.83;43.98;100427.94;107669;1271;138724;-76
2022/05/17 02:06:04;;;;;;;4.90;2.20;;;;;;;11.76;44.12;100433.38;107820;1271;106304;-75
2022/05/17 02:08:36;;;;;;;4.30;2.40;;;;;;;11.72;44.17;100431.79;107668;1272;138522;-76
2022/05/17 02:11:08;;;;;;;4.40;2.30;;;;;;;11.69;44.41;100436.27;107786;1272;96034;-75
2022/05/17 02:13:41;;;;;;;6.20;2.40;;;;;;;11.69;44.41;100435.91;107574;1273;137899;-73
2022/05/17 02:16:15;;;;;;;6.90;2.90;;;;;;;11.66;44.49;100438.80;107740;1273;106391;-75
2022/05/17 02:18:50;;;;;;;;;;;;;;;11.61;44.34;100444.67;107516;1272;109125;-75
2022/05/17 02:21:22;;;;;;;10.20;4.60;;;;;;;11.57;44.52;100446.73;106257;1273;124406;-76
2022/05/17 02:23:54;;;;;;;8.70;2.70;;;;;;;11.48;44.62;100447.36;107780;1273;96378;-75
2022/05/17 02:26:26;;;;;;;4.50;2.60;;;;;;;11.43;44.67;100448.58;106246;1273;137710;-75
2022/05/17 02:28:58;;;;;;;4.50;2.50;;;;;;;11.41;44.76;100454.08;106236;1273;108209;-75
2022/05/17 02:31:31;;;;;;;7.90;2.80;;;;;;;11.35;44.77;100450.44;107487;1273;109761;-75
2022/05/17 02:34:04;;;;;;;5.50;2.10;;;;;;;11.31;44.92;100449.01;106417;1273;137731;-75
2022/05/17 02:36:36;;;;;;;6.40;2.40;;;;;;;11.28;44.90;100456.39;106217;1273;97968;-74
2022/05/17 02:39:08;;;;;;;6.00;3.10;;;;;;;11.24;44.83;100463.14;106094;1273;137839;-75
2022/05/17 02:41:40;;;;;;;4.10;2.30;;;;;;;11.18;44.89;100463.50;106190;1273;110061;-75
2022/05/17 02:44:12;;;;;;;4.40;3.30;;;;;;;11.11;44.88;100465.95;106025;1273;138808;-75
2022/05/17 02:46:44;;;;;;;8.30;3.30;;;;;;;11.04;44.84;100465.15;107791;1271;96191;-76
2022/05/17 02:49:16;;;;;;;4.90;2.40;;;;;;;10.99;45.08;100471.23;107471;1273;97809;-75
2022/05/17 02:51:48;;;;;;;6.40;3.00;;;;;;;10.96;45.18;100473.07;106070;1273;138021;-75
2022/05/17 02:54:20;;;;;;;4.20;2.10;;;;;;;10.90;45.18;100477.71;106215;1273;108516;-77
2022/05/17 02:56:53;;;;;;;4.90;2.20;;;;;;;10.88;45.25;100478.33;106103;1273;138893;-77
2022/05/17 02:59:25;;;;;;;6.00;3.00;;;;;;;10.84;45.37;100475.30;106173;1273;97821;-76
2022/05/17 03:01:57;;;;;;;3.90;1.90;;;;;;;10.80;45.32;100474.23;106102;1273;138516;-75
2022/05/17 03:04:30;;;;;;;5.60;2.30;;;;;;;10.78;45.28;100477.59;106228;1273;111751;-75
2022/05/17 03:07:02;;;;;;;6.50;2.10;;;;;;;10.72;45.29;100482.29;106269;1273;108811;-77
2022/05/17 03:09:34;;;;;;;5.50;2.20;;;;;;;10.67;45.34;100482.95;106177;1273;138046;-75
2022/05/17 03:12:07;;;;;;;2.70;1.90;;;;;;;10.61;45.34;100480.70;106155;1273;97916;-75
2022/05/17 03:14:40;;;;;;;2.90;2.00;;;;;;;10.57;45.34;100484.24;107684;1272;137859;-75
2022/05/17 03:17:17;;;;;;;4.30;2.00;;;;;;;10.57;45.41;100482.52;107787;1273;109987;-76
2022/05/17 03:19:52;;;;;;;5.90;2.70;;;;;;;10.55;45.48;100485.20;107685;1271;138816;-75
2022/05/17 03:22:24;;;;;;;7.50;2.40;;;;;;;10.52;45.46;100482.52;107820;1273;106434;-76
2022/05/17 03:24:56;;;;;;;5.90;2.30;;;;;;;10.53;45.55;100488.20;107567;1272;96074;-76
2022/05/17 03:27:48;;;;;;;3.30;2.00;;;;;;;10.56;45.70;100488.45;107626;1273;138043;-76
2022/05/17 03:30:22;;;;;;;4.50;2.00;;;;;;;10.59;45.74;100484.38;107017;1272;111642;-75
2022/05/17 03:32:54;;;;;;;4.10;2.20;;;;;;;10.64;45.63;100486.00;106310;1273;138011;-74
2022/05/17 03:35:28;;;;;;;4.50;1.60;;;;;;;10.69;45.59;100483.77;107556;1273;108868;-75
2022/05/17 03:38:00;;;;;;;3.00;2.10;;;;;;;10.73;45.63;100482.75;107023;1273;138834;-75
2022/05/17 03:40:32;;;;;;;4.70;1.90;;;;;;;10.79;45.47;100478.60;107775;1271;95735;-76
2022/05/17 03:43:04;;;;;;;4.40;2.30;;;;;;;10.85;45.46;100488.67;106663;1272;112645;-75
2022/05/17 03:45:36;;;;;;;2.80;1.60;;;;;;;10.92;45.17;100487.08;107473;1273;137804;-76
2022/05/17 03:48:09;;;;;;;2.10;1.70;;;;;;;10.93;44.98;100484.61;107058;1272;108927;-75
2022/05/17 03:50:42;;;;;;;3.40;1.70;;;;;;;10.98;45.04;100485.52;106663;1273;138846;-76
2022/05/17 03:53:14;;;;;;;5.30;2.40;;;;;;;11.03;44.68;100482.21;106594;1274;97871;-74
2022/05/17 03:55:46;;;;;;;7.30;1.70;;;;;;;11.03;44.37;100479.27;107547;1273;139722;-75
2022/05/17 03:58:18;;;;;;;6.00;1.80;;;;;;;11.05;44.40;100481.30;107664;1273;106457;-72
2022/05/17 04:00:51;;;;;;;5.40;1.60;;;;;;;11.09;44.08;100483.44;107178;1273;108139;-73
2022/05/17 04:03:23;;;;;;;4.30;1.70;;;;;;;11.14;43.76;100483.48;107661;1273;138087;-73
2022/05/17 04:05:55;;;;;;;6.00;1.50;;;;;;;11.19;43.49;100487.33;106487;1273;97901;-74
2022/05/17 04:08:27;;;;;;;3.90;1.30;;;;;;;11.24;43.04;100484.36;107271;1272;138167;-74
2022/05/17 04:11:00;;;;;;;10.30;1.80;;;;;;;11.30;42.84;100484.35;107015;1273;109746;-75
2022/05/17 04:13:33;;;;;;;3.10;1.40;;;;;;;11.32;42.68;100481.67;106705;1273;109452;-75
2022/05/17 04:16:06;;;;;;;4.30;1.80;;;;;;;11.37;42.53;100480.31;106166;1273;137683;-76
2022/05/17 04:18:38;;;;;;;10.20;3.80;;;;;;;11.41;42.51;100480.52;106459;1273;97928;-75
2022/05/17 04:21:10;;;;;;;10.40;2.20;;;;;;;11.48;42.48;100487.96;106396;1273;138016;-74
2022/05/17 04:23:42;;;;;;;8.00;2.20;;;;;;;11.54;42.39;100486.75;107733;1273;107962;-75
2022/05/17 04:26:15;;;;;;;4.10;1.80;;;;;;;11.61;42.27;100485.79;107645;1273;138770;-74
2022/05/17 04:28:48;;;;;;;4.90;1.50;;;;;;;11.70;42.27;100488.63;106984;1273;165878;-76
2022/05/17 04:31:20;;;;;;;3.90;1.50;;;;;;;11.84;42.09;100492.55;106195;1273;97835;-75
2022/05/17 04:33:52;;;;;;;7.10;1.70;;;;;;;11.98;41.72;100494.50;107148;1274;138061;-76
2022/05/17 04:36:25;;;;;;;5.20;2.00;;;;;;;12.14;41.54;100501.46;106457;1274;108952;-76
2022/05/17 04:38:57;;;;;;;6.40;1.80;;;;;;;12.26;41.31;100509.63;107615;1272;139037;-76
2022/05/17 04:41:29;;;;;;;4.60;1.60;;;;;;;12.34;40.87;100505.29;107149;1273;97411;-76
2022/05/17 04:44:01;;;;;;;4.30;1.30;;;;;;;12.43;40.58;100504.81;106318;1273;137870;-76
2022/05/17 04:46:33;;;;;;;3.90;1.70;;;;;;;12.57;40.35;100510.07;106211;1273;112806;-76
2022/05/17 04:49:08;;;;;;;7.00;1.60;;;;;;;12.73;40.18;100517.34;107600;1273;108526;-76
2022/05/17 04:51:40;;;;;;;5.50;1.80;;;;;;;12.86;39.63;100520.86;107132;1273;137969;-76
2022/05/17 04:54:12;;;;;;;3.90;1.60;;;;;;;12.92;39.39;100521.14;106249;1273;97971;-74
2022/05/17 04:56:44;;;;;;;4.00;1.70;;;;;;;12.99;39.29;100522.66;106726;1271;137671;-74
2022/05/17 04:59:16;;;;;;;6.50;1.80;;;;;;;13.09;39.22;100525.23;107658;1273;110567;-75
2022/05/17 05:01:48;;;;;;;7.40;1.40;;;;;;;13.16;38.99;100527.25;107670;1273;138007;-73
2022/05/17 05:04:21;;;;;;;3.50;1.70;;;;;;;13.21;38.68;100531.41;107372;1273;108784;-75
2022/05/17 05:06:53;;;;;;;6.00;1.70;;;;;;;13.25;38.64;100533.70;106280;1273;97832;-76
2022/05/17 05:09:25;;;;;;;6.30;1.80;;;;;;;13.39;38.72;100531.42;106341;1272;137751;-76
2022/05/17 05:11:57;;;;;;;2.80;1.70;;;;;;;13.62;38.45;100531.39;106377;1272;113126;-76
2022/05/17 05:14:29;;;;;;;3.30;1.50;;;;;;;13.89;38.49;100526.61;107335;1272;136893;-76
2022/05/17 05:17:01;;;;;;;2.60;1.50;;;;;;;14.34;38.32;100521.77;107764;1273;109150;-76
2022/05/17 05:19:34;;;;;;;6.30;1.70;;;;;;;14.87;38.02;100525.69;107773;1273;96036;-76
2022/05/17 05:22:07;;;;;;;6.10;1.70;;;;;;;15.91;37.53;100524.58;106614;1273;138811;-76
2022/05/17 05:24:38;;;;;;;2.60;1.30;;;;;;;17.58;35.85;100517.50;107689;1273;112509;-76
2022/05/17 05:27:11;;;;;;;6.00;1.60;;;;;;;19.79;33.79;100512.53;107515;1272;138363;-73
2022/05/17 05:29:43;;;;;;;3.80;1.40;;;;;;;21.87;31.89;100508.31;106347;1273;107817;-75
2022/05/17 05:32:16;;;;;;;9.60;1.50;;;;;;;23.21;29.58;100503.57;107464;1272;138202;-74
2022/05/17 05:34:48;;;;;;;8.40;1.60;;;;;;;24.31;28.25;100498.45;107689;1271;95991;-75
2022/05/17 05:37:20;;;;;;;5.60;1.70;;;;;;;24.79;26.79;100499.34;107786;1271;112540;-75
2022/05/17 05:39:53;;;;;;;7.30;1.30;;;;;;;25.34;25.99;100497.31;107620;1273;137966;-76
2022/05/17 05:42:25;;;;;;;8.40;1.90;;;;;;;26.68;25.12;100499.29;106367;1273;108587;-75
2022/05/17 05:44:58;;;;;;;4.30;1.40;;;;;;;28.55;23.56;100490.08;107644;1273;137965;-74
2022/05/17 05:47:29;;;;;;;4.30;1.40;;;;;;;30.02;21.85;100485.69;107247;1273;97756;-74
2022/05/17 05:50:02;;;;;;;4.70;1.40;;;;;;;30.82;20.56;100487.59;106334;1273;138390;-75
2022/05/17 05:52:35;;;;;;;2.20;1.30;;;;;;;31.28;19.46;100488.09;107151;1272;108797;-74
2022/05/17 05:55:12;;;;;;;3.50;1.40;;;;;;;31.06;18.48;100487.98;107682;1273;108873;-75
2022/05/17 05:57:50;;;;;;;2.60;1.10;;;;;;;29.88;18.23;100495.48;106868;1272;138363;-74
2022/05/17 06:00:23;;;;;;;6.40;1.30;;;;;;;28.59;18.48;100493.29;107580;1273;96263;-75
2022/05/17 06:02:56;;;;;;;8.30;1.30;;;;;;;28.05;18.82;100494.93;107248;1273;137986;-77
2022/05/17 06:05:30;;;;;;;4.20;1.50;;;;;;;27.01;18.99;100497.89;106658;1273;109111;-72
2022/05/17 06:08:02;;;;;;;4.80;1.40;;;;;;;26.07;19.32;100497.58;107607;1273;139017;-72
2022/05/17 06:10:34;;;;;;;11.40;1.60;;;;;;;27.03;19.63;100499.44;107658;1273;96314;-76
2022/05/17 06:13:06;;;;;;;3.50;1.40;;;;;;;28.68;18.97;100502.19;107774;1273;96053;-75
2022/05/17 06:15:38;;;;;;;8.90;1.60;;;;;;;29.14;18.02;100504.19;107552;1273;137584;-74
2022/05/17 06:18:11;;;;;;;7.80;1.30;;;;;;;29.59;17.85;100510.93;106881;1273;107787;-74
2022/05/17 06:20:48;;;;;;;8.40;1.30;;;;;;;30.71;17.12;100508.23;107224;1273;137974;-75
2022/05/17 06:23:21;;;;;;;5.00;1.50;;;;;;;31.69;16.34;100506.66;106572;1273;97136;-73
2022/05/17 06:25:53;;;;;;;7.00;1.10;;;;;;;32.36;16.00;100501.41;107662;1273;138033;-73
2022/05/17 06:28:25;;;;;;;8.10;1.60;;;;;;;32.14;15.51;100503.91;106267;1270;112544;-72
2022/05/17 06:30:58;;;;;;;3.90;1.10;;;;;;;30.99;15.50;100508.59;106177;1273;109030;-71
2022/05/17 06:33:30;;;;;;;6.40;1.30;;;;;;;30.61;15.86;100510.30;107641;1273;137866;-71
2022/05/17 06:36:02;;;;;;;3.00;1.00;;;;;;;31.22;15.70;100511.95;107651;1273;97410;-71
2022/05/17 06:38:34;;;;;;;11.70;5.20;;;;;;;31.53;15.59;100508.41;107387;1273;137669;-73
2022/05/17 06:41:07;;;;;;;9.70;1.50;;;;;;;32.45;15.17;100500.16;106498;1273;110509;-73
2022/05/17 06:43:39;;;;;;;3.90;1.30;;;;;;;33.30;14.66;100499.83;107670;1273;107584;-72
2022/05/17 06:46:11;;;;;;;7.60;1.20;;;;;;;33.89;13.82;100495.61;106795;1273;107637;-71
2022/05/17 06:48:44;;;;;;;5.70;1.00;;;;;;;34.08;13.37;100499.71;107094;1273;96397;-73
2022/05/17 06:51:16;;;;;;;4.40;0.80;;;;;;;34.92;12.36;100496.95;106890;1273;138207;-73
2022/05/17 06:53:49;;;;;;;3.70;0.90;;;;;;;35.70;12.01;100497.52;106023;1274;113069;-74
2022/05/17 06:56:21;;;;;;;1.60;0.80;;;;;;;36.18;11.57;100492.77;107591;1271;138549;-75
2022/05/17 06:58:53;;;;;;;3.30;1.30;;;;;;;36.39;11.84;100496.66;106340;1273;108706;-76
2022/05/17 07:01:26;;;;;;;4.20;1.10;;;;;;;36.78;11.86;100497.70;107718;1273;96080;-75
2022/05/17 07:03:58;;;;;;;3.10;0.90;;;;;;;37.34;11.86;100491.47;106638;1273;137532;-75
2022/05/17 07:06:30;;;;;;;6.10;1.10;;;;;;;37.78;11.71;100492.19;107477;1273;112422;-75
2022/05/17 07:09:02;;;;;;;5.00;1.10;;;;;;;38.05;11.06;100494.29;107094;1273;137744;-75
2022/05/17 07:14:25;;;;;;;9.00;1.50;;;;;;;38.28;10.89;100482.82;107265;1273;138168;-75
2022/05/17 07:16:57;;;;;;;10.00;4.70;;;;;;;38.38;10.62;100485.20;106568;1273;97705;-75
2022/05/17 07:19:31;;;;;;;3.50;1.60;;;;;;;37.70;10.54;100492.11;107655;1273;112529;-75
2022/05/17 07:22:06;;;;;;;3.90;1.10;;;;;;;37.48;10.85;100492.20;107598;1272;137572;-74
2022/05/17 07:24:41;;;;;;;11.30;1.50;;;;;;;37.60;10.75;100498.30;107665;1273;108499;-75
2022/05/17 07:27:13;;;;;;;3.90;0.90;;;;;;;37.06;10.62;100503.39;107209;1274;139020;-74
2022/05/17 07:29:51;;;;;;;5.60;1.10;;;;;;;37.06;10.82;100505.94;106627;1274;96580;-74
2022/05/17 07:32:23;;;;;;;8.30;1.50;;;;;;;37.48;10.66;100504.96;107612;1273;138232;-75
2022/05/17 07:34:56;;;;;;;6.90;1.00;;;;;;;37.36;10.09;100502.95;106793;1273;108846;-74
2022/05/17 07:37:28;;;;;;;5.40;1.30;;;;;;;36.10;10.49;100510.73;107713;1274;108308;-76
2022/05/17 07:40:00;;;;;;;4.90;0.90;;;;;;;34.83;10.90;100509.47;106589;1274;138244;-75
2022/05/17 07:42:32;;;;;;;3.70;0.90;;;;;;;33.38;11.14;100514.48;107507;1272;97500;-73
2022/05/17 07:45:05;;;;;;;4.10;0.90;;;;;;;32.20;11.79;100513.73;107574;1274;137610;-75
2022/05/17 07:47:37;;;;;;;11.40;7.00;;;;;;;32.02;12.24;100521.98;107745;1273;107814;-75
2022/05/17 07:50:13;;;;;;;4.20;1.70;;;;;;;32.91;12.49;100509.14;107209;1274;138280;-74
2022/05/17 07:52:45;;;;;;;2.90;0.90;;;;;;;34.00;11.86;100510.30;106567;1273;97827;-75
2022/05/17 07:55:17;;;;;;;3.90;1.00;;;;;;;34.64;11.42;100511.27;106181;1274;97839;-74
2022/05/17 07:57:49;;;;;;;5.50;0.90;;;;;;;34.93;11.30;100513.03;107400;1271;138077;-75
2022/05/17 08:00:22;;;;;;;5.60;1.00;;;;;;;35.33;11.18;100520.08;107733;1273;108951;-75
2022/05/17 08:02:56;;;;;;;4.70;0.90;;;;;;;35.84;11.09;100520.05;107549;1273;137949;-75
2022/05/17 08:05:29;;;;;;;10.00;1.50;;;;;;;35.49;10.58;100515.25;107697;1274;96056;-75
2022/05/17 08:08:02;;;;;;;5.90;1.00;;;;;;;34.55;10.81;100513.58;107632;1273;138658;-76
2022/05/17 08:10:34;;;;;;;6.30;0.80;;;;;;;34.44;10.86;100510.77;107722;1273;111978;-75
2022/05/17 08:13:07;;;;;;;3.00;0.70;;;;;;;34.41;10.52;100510.86;107729;1273;107953;-75
2022/05/17 08:15:40;;;;;;;3.40;0.60;;;;;;;34.24;10.46;100511.17;107563;1273;137630;-76
2022/05/17 08:18:12;;;;;;;2.90;0.80;;;;;;;34.29;11.08;100511.27;107749;1273;96027;-75
2022/05/17 08:20:44;;;;;;;3.80;0.80;;;;;;;34.29;10.99;100514.00;107571;1273;139463;-77
2022/05/17 08:23:17;;;;;;;5.80;1.00;;;;;;;34.22;10.93;100518.16;107742;1273;112430;-74
2022/05/17 08:28:38;;;;;;;3.10;1.00;;;;;;;33.45;11.08;100516.88;107633;1273;109154;-75
2022/05/17 08:31:11;;;;;;;3.60;1.20;;;;;;;33.35;11.22;100520.95;107341;1273;97848;-74
2022/05/17 08:33:43;;;;;;;3.00;0.90;;;;;;;33.49;11.27;100518.99;105995;1273;137853;-76
2022/05/17 08:36:15;;;;;;;6.50;0.80;;;;;;;33.32;11.07;100515.77;107047;1273;112759;-76
2022/05/17 08:38:49;;;;;;;2.90;1.30;;;;;;;32.90;11.58;100513.39;107562;1273;137998;-75
2022/05/17 08:41:48;;;;;;;6.40;1.20;;;;;;;32.58;12.18;100516.31;107704;1273;107657;-75
2022/05/17 08:44:29;;;;;;;9.40;1.00;;;;;;;31.73;12.07;100516.96;106405;1273;138003;-75
2022/05/17 08:47:11;;;;;;;5.00;0.70;;;;;;;31.35;12.75;100513.02;106123;1273;98167;-66
2022/05/17 08:50:06;;;;;;;2.80;0.70;;;;;;;31.25;12.59;100516.66;106811;1273;138536;-66
2022/05/17 08:52:40;;;;;;;;;;;;;;;31.13;12.65;100522.15;106312;1273;108380;-67
2022/05/17 08:55:21;;;;;;;5.10;0.70;;;;;;;31.17;13.05;100520.79;107678;1273;108839;-67
2022/05/17 08:57:58;;;;;;;4.40;0.90;;;;;;;31.26;12.82;100516.73;107618;1273;138389;-66
2022/05/17 09:00:38;;;;;;;2.70;0.60;;;;;;;31.27;12.91;100513.02;106970;1273;95687;-67
2022/05/17 09:03:26;;;;;;;5.70;1.00;;;;;;;31.10;12.86;100513.21;107608;1272;138429;-67
2022/05/17 09:06:06;;;;;;;4.70;0.90;;;;;;;31.23;13.04;100512.08;107317;1273;139687;-67
2022/05/17 09:08:45;;;;;;;5.90;0.70;;;;;;;31.47;13.14;100510.41;107339;1273;106302;-67
2022/05/17 09:11:31;;;;;;;8.00;0.80;;;;;;;31.45;13.07;100510.59;106134;1273;138056;-66
2022/05/17 09:14:08;;;;;;;5.30;0.90;;;;;;;31.58;13.22;100507.04;107635;1271;96129;-66
2022/05/17 09:16:45;;;;;;;3.40;0.80;;;;;;;31.99;13.06;100506.27;107652;1273;114094;-66
2022/05/17 09:19:18;;;;;;;7.30;0.90;;;;;;;31.89;12.76;100506.65;107538;1273;137841;-66
2022/05/17 09:21:50;;;;;;;6.70;0.60;;;;;;;31.73;13.19;100513.00;107688;1273;108777;-66
2022/05/17 09:24:25;;;;;;;2.00;0.70;;;;;;;31.89;12.95;100515.73;107594;1273;138047;-67
2022/05/17 09:27:05;;;;;;;5.90;0.80;;;;;;;31.78;12.96;100514.96;107482;1273;96096;-66
2022/05/17 09:29:42;;;;;;;1.50;0.60;;;;;;;31.46;12.97;100515.09;107239;1273;138039;-66
2022/05/17 09:32:26;;;;;;;3.70;0.40;;;;;;;31.16;13.02;100517.33;106236;1273;109842;-67
2022/05/17 09:35:02;;;;;;;1.90;1.00;;;;;;;30.82;13.06;100516.52;107593;1273;107780;-67
2022/05/17 09:37:39;;;;;;;5.50;0.70;;;;;;;30.14;13.37;100513.42;106329;1273;137715;-66
2022/05/17 09:40:15;;;;;;;2.00;0.60;;;;;;;29.62;13.64;100516.92;106150;1273;97838;-66
2022/05/17 09:43:04;;;;;;;1.50;0.60;;;;;;;29.61;14.15;100515.73;107399;1273;138391;-67
2022/05/17 09:45:58;;;;;;;2.70;0.70;;;;;;;29.88;14.09;100513.21;106024;1273;107751;-66
2022/05/17 09:52:32;;;;;;;3.60;0.70;;;;;;;30.14;13.93;100501.73;107445;1273;138307;-66
2022/05/17 09:54:34;;;;;;;2.80;0.80;;;;;;;30.69;13.64;100501.31;107416;1272;137925;-67
2022/05/17 09:57:23;;;;;;;5.20;1.10;;;;;;;30.72;13.55;100495.76;106072;1271;112106;-66
2022/05/17 10:00:08;;;;;;;4.40;0.80;;;;;;;30.44;13.62;100506.30;105955;1273;138082;-66
2022/05/17 10:02:50;;;;;;;1.40;0.70;;;;;;;30.34;13.72;100506.32;107148;1273;107633;-67
2022/05/17 10:05:26;;;;;;;7.40;1.20;;;;;;;29.84;13.51;100498.59;106058;1273;139020;-66
2022/05/17 10:08:02;;;;;;;3.10;1.00;;;;;;;29.12;13.82;100503.70;106521;1273;97796;-67
2022/05/17 10:10:39;;;;;;;3.20;0.50;;;;;;;28.82;14.29;100503.20;106573;1273;112585;-67
2022/05/17 10:13:20;;;;;;;5.50;0.80;;;;;;;28.58;14.37;100502.85;107009;1273;138862;-67
2022/05/17 10:15:56;;;;;;;3.70;0.70;;;;;;;28.20;14.64;100506.17;106152;1273;108786;-66
2022/05/17 10:18:39;;;;;;;7.40;3.10;;;;;;;28.03;14.51;100502.76;107512;1273;138474;-66
2022/05/17 10:21:19;;;;;;;10.50;1.70;;;;;;;27.90;14.80;100499.13;107708;1273;96061;-67
2022/05/17 10:24:01;;;;;;;5.00;1.00;;;;;;;27.87;14.76;100495.36;107653;1272;138634;-66
2022/05/17 10:26:39;;;;;;;4.50;0.80;;;;;;;28.20;15.04;100498.67;107710;1272;108888;-67
2022/05/17 10:29:27;;;;;;;2.10;1.00;;;;;;;28.51;14.64;100487.73;107610;1273;107726;-68
2022/05/17 10:32:06;;;;;;;6.10;0.90;;;;;;;28.78;14.37;100488.20;107702;1271;96148;-67
2022/05/17 10:35:03;;;;;;;5.10;0.70;;;;;;;28.94;14.16;100485.35;107668;1273;96158;-70
2022/05/17 10:37:39;;;;;;;4.20;0.50;;;;;;;28.99;14.15;100483.21;106189;1273;137601;-65
2022/05/17 10:40:16;;;;;;;8.90;1.00;;;;;;;29.01;14.40;100484.02;106130;1273;109163;-65
2022/05/17 10:42:48;;;;;;;7.60;0.80;;;;;;;29.10;14.58;100483.09;107219;1273;138145;-64
2022/05/17 10:45:24;;;;;;;4.70;0.80;;;;;;;29.04;14.11;100482.52;106171;1273;97966;-64
2022/05/17 10:48:04;;;;;;;4.70;0.70;;;;;;;28.90;14.07;100473.38;107558;1273;137901;-64
2022/05/17 10:50:41;;;;;;;4.30;1.00;;;;;;;28.43;13.94;100478.67;106524;1273;111815;-64
2022/05/17 10:53:29;;;;;;;3.60;0.90;;;;;;;27.78;14.29;100486.55;106162;1273;109522;-63
2022/05/17 10:56:14;;;;;;;4.10;1.10;;;;;;;27.61;14.78;100487.48;106651;1273;107933;-65
2022/05/17 10:58:57;;;;;;;2.20;0.80;;;;;;;27.57;14.95;100479.48;106086;1273;97840;-65
2022/05/17 11:01:38;;;;;;;1.90;0.70;;;;;;;27.44;14.85;100479.27;107514;1273;138095;-65
2022/05/17 11:04:22;;;;;;;2.40;0.60;;;;;;;27.30;15.11;100482.22;107639;1273;112916;-65
2022/05/17 11:07:09;;;;;;;2.40;0.50;;;;;;;27.13;14.91;100485.01;107508;1273;137977;-65
2022/05/17 11:09:51;;;;;;;4.10;0.80;;;;;;;27.03;15.41;100482.89;107677;1272;108656;-65
2022/05/17 11:12:32;;;;;;;4.80;0.90;;;;;;;27.08;14.85;100479.00;107624;1273;138491;-65
2022/05/17 11:15:11;;;;;;;1.40;0.80;;;;;;;26.99;15.09;100474.90;107630;1273;96981;-65
2022/05/17 11:17:51;;;;;;;4.40;0.60;;;;;;;26.98;15.11;100476.58;107529;1273;138401;-66
2022/05/17 11:20:28;;;;;;;5.40;0.50;;;;;;;26.91;15.43;100476.92;107675;1273;109116;-66
2022/05/17 11:23:27;;;;;;;3.70;0.70;;;;;;;26.68;15.29;100481.09;107614;1273;107745;-66
2022/05/17 11:26:24;;;;;;;3.40;0.60;;;;;;;26.24;15.53;100464.83;106386;1273;97834;-67
2022/05/17 11:29:39;;;;;;;1.30;0.60;;;;;;;25.77;15.73;100470.42;107622;1272;95970;-66
2022/05/17 11:32:25;;;;;;;1.70;0.70;;;;;;;25.67;16.28;100472.41;107100;1276;110364;-67
2022/05/17 11:34:59;;;;;;;3.80;0.60;;;;;;;25.89;16.51;100473.03;107323;1277;107615;-66
2022/05/17 11:38:00;;;;;;;1.70;0.80;;;;;;;25.99;16.33;100470.21;105845;1278;138272;-69
2022/05/17 11:40:56;;;;;;;3.90;1.00;;;;;;;25.76;16.24;100476.08;107265;1277;96192;-67
2022/05/17 11:43:43;;;;;;;2.30;0.70;;;;;;;25.50;16.41;100475.57;106656;1277;138804;-67
2022/05/17 11:46:42;;;;;;;1.80;0.80;;;;;;;25.52;16.55;100469.87;107353;1277;111547;-66
2022/05/17 11:49:45;;;;;;;6.80;0.90;;;;;;;25.59;16.65;100471.16;106816;1277;151618;-65
2022/05/17 11:52:37;;;;;;;4.60;0.60;;;;;;;25.69;16.84;100466.41;105795;1278;109133;-66
2022/05/17 11:55:11;;;;;;;1.40;0.70;;;;;;;25.60;16.57;100464.69;105840;1277;137957;-67
2022/05/17 11:58:00;;;;;;;2.80;0.70;;;;;;;25.61;16.73;100465.45;107384;1277;96217;-68
2022/05/17 12:00:53;;;;;;;5.60;0.90;;;;;;;25.53;16.77;100467.42;106236;1276;137880;-65